Station Historical Data
Daily Summary for September 6, 2017 Units:  Metric    English   Both
« Previous Day
Next Day »
Daily Weekly Monthly Yearly Custom
  High: Low: Average:
Temperature: 21.6 °C 15.8 °C 18.5 °C
Dew Point: 19.1 °C 9.1 °C 15.2 °C
Humidity: 94% 49% 82%
Wind Speed: 1.6km/h 0km/h 0.2km/h
Wind Gust: 9.7km/h - -
Wind- - SW
Pressure: 1016.1 hPa 1011.1 hPa -
Precipitation: 0.25 mm    
Historical Graphs
 
 
Tabular Data for September 6, 2017
Time Temperature Dew Point Pressure Wind Wind Speed Wind Gust Humidity Rainfall Rate (Hourly) Conditions
00:00 19.8 °C 18.8 °C 1013.4 hPa Calm     94% 0 mm RA
00:10 19.9 °C 18.9 °C 1013.8 hPa Calm     94% 0 mm SCT
00:15 19.9 °C 18.9 °C 1013.4 hPa Calm     94% 0 mm SCT
00:20 19.9 °C 18.9 °C 1013.8 hPa Calm     94% 0 mm BKN
00:25 19.9 °C 18.9 °C 1013.8 hPa Calm     94% 0 mm BKN
00:30 20 °C 19 °C 1013.8 hPa Calm     94% 0 mm BKN
00:35 20.1 °C 19.1 °C 1013.8 hPa Calm     94% 0 mm BKN
00:40 20.1 °C 19.1 °C 1013.8 hPa Calm     94% 0 mm BKN
00:45 19.9 °C 18.9 °C 1013.8 hPa Calm     94% 0 mm BKN
00:55 19.8 °C 18.7 °C 1013.8 hPa Calm     93% 0 mm BKN
01:00 19.8 °C 18.7 °C 1013.8 hPa Calm     93% 0 mm BKN
01:05 19.8 °C 18.8 °C 1013.4 hPa Calm     94% 0 mm OVC
01:10 19.8 °C 18.8 °C 1013.4 hPa Calm     94% 0 mm OVC
01:15 19.8 °C 18.8 °C 1013.4 hPa Calm     94% 0 mm OVC
01:20 19.8 °C 18.8 °C 1013.4 hPa Calm     94% 0 mm OVC
01:25 19.7 °C 18.7 °C 1013.4 hPa Calm     94% 0 mm OVC
01:30 19.7 °C 18.7 °C 1013.4 hPa Calm     94% 0 mm BKN
01:40 19.7 °C 18.7 °C 1013.4 hPa Calm     94% 0 mm BKN
01:45 19.6 °C 18.6 °C 1013.1 hPa Calm     94% 0 mm BKN
01:50 19.6 °C 18.6 °C 1013.1 hPa Calm     94% 0 mm BKN
01:55 19.7 °C 18.7 °C 1013.1 hPa Calm     94% 0 mm BKN
02:00 19.7 °C 18.7 °C 1013.1 hPa Calm     94% 0 mm BKN
02:05 19.7 °C 18.7 °C 1012.8 hPa Calm     94% 0 mm BKN
02:10 19.7 °C 18.7 °C 1012.8 hPa Calm     94% 0 mm BKN
02:15 19.6 °C 18.6 °C 1012.8 hPa Calm     94% 0 mm BKN
02:20 19.6 °C 18.6 °C 1012.8 hPa Calm     94% 0 mm BKN
02:25 19.6 °C 18.6 °C 1012.8 hPa Calm     94% 0 mm BKN
02:30 19.6 °C 18.6 °C 1012.8 hPa Calm     94% 0 mm BKN
02:40 19.6 °C 18.6 °C 1012.8 hPa Calm     94% 0 mm BKN
02:45 19.6 °C 18.6 °C 1012.8 hPa Calm     94% 0 mm BKN
02:50 19.5 °C 18.5 °C 1012.4 hPa Calm     94% 0 mm BKN
02:55 19.5 °C 18.5 °C 1012.4 hPa Calm   1.6 km/h 94% 0 mm BKN
03:00 19.5 °C 18.5 °C 1012.4 hPa Calm   1.6 km/h 94% 0 mm BKN
03:05 19.5 °C 18.5 °C 1012.1 hPa Calm   1.6 km/h 94% 0 mm BKN
03:10 19.4 °C 18.4 °C 1011.7 hPa Calm     94% 0 mm BKN
03:15 19.4 °C 18.4 °C 1011.7 hPa Calm     94% 0 mm BKN
03:20 19.4 °C 18.4 °C 1012.1 hPa Calm     94% 0 mm OVC
03:25 19.5 °C 18.5 °C 1011.7 hPa Calm     94% 0 mm OVC
03:30 19.5 °C 18.5 °C 1011.7 hPa Calm   1.6 km/h 94% 0 mm OVC
03:35 19.5 °C 18.5 °C 1011.7 hPa Calm     94% 0 mm OVC
03:40 19.5 °C 18.6 °C 1011.7 hPa Calm     94% 0 mm OVC
03:45 19.5 °C 18.6 °C 1011.7 hPa Calm     94% 0 mm OVC
03:50 19.6 °C 18.6 °C 1011.7 hPa Calm     94% 0 mm OVC
03:55 19.5 °C 18.5 °C 1011.7 hPa Calm   1.6 km/h 94% 0 mm OVC
04:00 19.4 °C 18.4 °C 1011.7 hPa Calm   4.8 km/h 94% 0 mm OVC
04:05 19.4 °C 18.4 °C 1011.4 hPa Calm   1.6 km/h 94% 0 mm OVC
04:10 19.2 °C 18.2 °C 1011.4 hPa Calm   3.2 km/h 94% 0 mm OVC
04:15 19.2 °C 18.2 °C 1011.4 hPa Calm   1.6 km/h 94% 0 mm OVC
04:20 19.1 °C 18.1 °C 1011.4 hPa Calm     94% 0 mm OVC
04:25 19.1 °C 18.1 °C 1011.4 hPa Calm   1.6 km/h 94% 0 mm OVC
04:30 19 °C 18 °C 1011.4 hPa Calm   3.2 km/h 94% 0 mm OVC
04:35 19 °C 18 °C 1011.4 hPa Calm   1.6 km/h 94% 0 mm OVC
04:40 18.9 °C 17.9 °C 1011.4 hPa Calm   3.2 km/h 94% 0 mm OVC
04:45 18.9 °C 17.9 °C 1011.4 hPa Calm   3.2 km/h 94% 0 mm OVC
04:50 18.8 °C 17.6 °C 1011.4 hPa Calm   1.6 km/h 93% 0 mm OVC
04:55 18.7 °C 17.5 °C 1011.1 hPa Calm   1.6 km/h 93% 0 mm OVC
05:00 18.6 °C 17.4 °C 1011.1 hPa Calm   3.2 km/h 93% 0 mm OVC
05:05 18.4 °C 17.2 °C 1011.1 hPa Calm   4.8 km/h 93% 0 mm OVC
05:10 18.3 °C 17.2 °C 1011.1 hPa Calm   1.6 km/h 93% 0 mm OVC
05:20 18.2 °C 17.1 °C 1011.4 hPa Calm   1.6 km/h 93% 0 mm OVC
05:25 18.1 °C 16.9 °C 1011.4 hPa Calm     93% 0 mm OVC
05:30 17.9 °C 16.8 °C 1011.4 hPa Calm   1.6 km/h 93% 0 mm OVC
05:35 17.7 °C 16.6 °C 1011.7 hPa Calm   1.6 km/h 93% 0 mm OVC
05:40 17.6 °C 16.4 °C 1011.7 hPa Calm   1.6 km/h 93% 0 mm OVC
05:45 17.4 °C 16.3 °C 1011.7 hPa Calm   1.6 km/h 93% 0 mm OVC
05:50 17.3 °C 16.2 °C 1011.7 hPa Calm   1.6 km/h 93% 0 mm BKN
05:55 17.3 °C 16.1 °C 1011.7 hPa Calm     93% 0 mm BKN
06:00 17.2 °C 16 °C 1011.7 hPa Calm   1.6 km/h 93% 0 mm BKN
06:05 17.1 °C 15.9 °C 1011.7 hPa Calm   1.6 km/h 93% 0 mm BKN
06:10 17 °C 15.8 °C 1011.7 hPa Calm   1.6 km/h 93% 0 mm BKN
06:15 16.9 °C 15.8 °C 1011.7 hPa Calm     93% 0 mm BKN
06:20 16.9 °C 15.7 °C 1011.7 hPa Calm     93% 0 mm OVC
06:25 16.8 °C 15.7 °C 1012.1 hPa Calm   1.6 km/h 93% 0 mm OVC
06:30 16.8 °C 15.7 °C 1012.1 hPa Calm     93% 0 mm OVC
06:35 16.7 °C 15.6 °C 1012.1 hPa Calm   1.6 km/h 93% 0 mm OVC
06:40 16.7 °C 15.5 °C 1011.7 hPa Calm     93% 0 mm OVC
06:45 16.6 °C 15.5 °C 1012.1 hPa Calm     93% 0 mm OVC
06:50 16.6 °C 15.4 °C 1011.7 hPa Calm   1.6 km/h 93% 0 mm OVC
06:55 16.5 °C 15.4 °C 1012.1 hPa Calm     93% 0 mm OVC
07:00 16.4 °C 15.3 °C 1011.7 hPa Calm     93% 0 mm OVC
07:05 16.4 °C 15.3 °C 1012.1 hPa Calm     93% 0 mm OVC
07:10 16.3 °C 15.2 °C 1012.1 hPa Calm   1.6 km/h 93% 0 mm OVC
07:15 16.3 °C 15.2 °C 1012.4 hPa Calm   1.6 km/h 93% 0 mm OVC
07:20 16.3 °C 15.2 °C 1012.4 hPa Calm     93% 0 mm OVC
07:25 16.2 °C 15.1 °C 1012.4 hPa Calm   1.6 km/h 93% 0 mm OVC
07:30 16.2 °C 15.1 °C 1012.1 hPa Calm     93% 0 mm OVC
07:35 16.2 °C 15.1 °C 1012.1 hPa Calm     93% 0 mm OVC
07:40 16.2 °C 15.1 °C 1012.1 hPa Calm     93% 0 mm OVC
07:50 16.1 °C 14.9 °C 1012.4 hPa Calm     93% 0 mm OVC
07:55 16.1 °C 14.9 °C 1012.4 hPa Calm     93% 0 mm OVC
08:00 16.1 °C 15 °C 1012.4 hPa Calm     93% 0 mm OVC
08:10 16.1 °C 15 °C 1012.4 hPa Calm     93% 0 mm OVC
08:15 16.1 °C 15 °C 1012.4 hPa Calm     93% 0 mm OVC
08:20 16.1 °C 15 °C 1012.8 hPa Calm     93% 0 mm OVC
08:25 16.2 °C 15.1 °C 1012.8 hPa Calm   1.6 km/h 93% 0 mm OVC
08:30 16.2 °C 15.1 °C 1012.4 hPa Calm     93% 0 mm OVC
08:35 16.2 °C 15.1 °C 1012.8 hPa Calm     93% 0 mm OVC
08:40 16.2 °C 15.1 °C 1012.8 hPa Calm     93% 0 mm OVC
08:45 16.2 °C 15.1 °C 1012.8 hPa Calm     93% 0 mm OVC
08:50 16.2 °C 15.1 °C 1013.1 hPa Calm     93% 0 mm OVC
08:55 16.2 °C 15.1 °C 1013.1 hPa Calm   1.6 km/h 93% 0 mm OVC
09:00 16.3 °C 15.2 °C 1013.1 hPa Calm   1.6 km/h 93% 0 mm OVC
09:10 16.4 °C 15.3 °C 1013.1 hPa Calm   1.6 km/h 93% 0 mm OVC
09:15 16.4 °C 15.1 °C 1013.1 hPa Calm   1.6 km/h 92% 0 mm OVC
09:20 16.4 °C 15.1 °C 1013.4 hPa Calm   3.2 km/h 92% 0 mm OVC
09:25 16.4 °C 15.2 °C 1013.4 hPa Calm   1.6 km/h 92% 0 mm OVC
09:30 16.5 °C 15.2 °C 1013.4 hPa Calm   1.6 km/h 92% 0 mm OVC
09:35 16.6 °C 15.3 °C 1013.4 hPa Calm     92% 0 mm OVC
09:40 16.5 °C 15.2 °C 1013.4 hPa Calm   8 km/h 92% 0 mm OVC
09:45 16.6 °C 15.3 °C 1013.4 hPa Calm   1.6 km/h 92% 0 mm OVC
09:50 16.6 °C 15.3 °C 1013.4 hPa Calm     92% 0 mm OVC
09:55 16.7 °C 15.3 °C 1013.4 hPa Calm     92% 0 mm OVC
10:05 16.6 °C 15.3 °C 1014.1 hPa Calm     92% 0 mm OVC
10:10 16.6 °C 15.3 °C 1014.1 hPa Calm     92% 0 mm OVC
10:15 16.6 °C 15.3 °C 1014.1 hPa Calm     92% 0 mm OVC
10:20 16.5 °C 15.2 °C 1014.1 hPa Calm     92% 0 mm OVC
10:25 16.4 °C 15.1 °C 1014.1 hPa Calm     92% 0 mm OVC
10:30 16.3 °C 14.8 °C 1014.4 hPa Calm     91% 0 mm -RA
10:35 16.3 °C 15 °C 1014.4 hPa Calm     92% 0 mm -RA
10:40 16.2 °C 14.9 °C 1014.1 hPa Calm     92% 0 mm -RA
10:45 16.2 °C 14.9 °C 1014.1 hPa Calm     92% 0 mm -RA
10:50 16.1 °C 14.8 °C 1014.1 hPa Calm     92% 0 mm -RA
10:55 16 °C 14.7 °C 1013.8 hPa Calm   3.2 km/h 92% 0 mm -RA
11:00 15.9 °C 14.7 °C 1013.8 hPa Calm   1.6 km/h 92% 0 mm -RA
11:05 15.9 °C 14.6 °C 1014.4 hPa Calm     92% 0 mm -RA
11:10 15.9 °C 14.6 °C 1015.1 hPa Calm   1.6 km/h 92% 0.25 mm -RA
11:15 15.8 °C 14.5 °C 1015.1 hPa Calm     92% 0 mm -RA
11:20 15.8 °C 14.5 °C 1014.8 hPa Calm   1.6 km/h 92% 0 mm OVC
11:25 15.8 °C 14.5 °C 1014.8 hPa Calm   1.6 km/h 92% 0 mm OVC
11:35 16 °C 14.8 °C 1014.4 hPa Calm     93% 0 mm -RA
11:40 16 °C 14.9 °C 1014.4 hPa Calm     93% 0 mm -RA
11:45 15.9 °C 14.7 °C 1014.4 hPa Calm     92% 0 mm -RA
11:50 16 °C 14.9 °C 1014.4 hPa Calm   1.6 km/h 93% 0 mm -RA
11:55 16.2 °C 15 °C 1014.8 hPa Calm     93% 0 mm -RA
12:00 16.3 °C 15.2 °C 1014.8 hPa Calm   1.6 km/h 93% 0 mm -RA
12:05 16.4 °C 15.1 °C 1014.8 hPa Calm   1.6 km/h 92% 0 mm OVC
12:10 16.4 °C 15.2 °C 1014.8 hPa Calm     92% 0 mm OVC
12:15 16.4 °C 15.2 °C 1014.8 hPa Calm   1.6 km/h 92% 0 mm OVC
12:20 16.4 °C 15.2 °C 1014.8 hPa Calm     92% 0 mm OVC
12:25 16.4 °C 14.9 °C 1014.8 hPa Calm   1.6 km/h 91% 0 mm OVC
12:30 16.4 °C 15.1 °C 1014.8 hPa Calm   1.6 km/h 92% 0 mm OVC
12:35 16.5 °C 15.2 °C 1014.4 hPa Calm   1.6 km/h 92% 0 mm OVC
12:40 16.7 °C 15.2 °C 1014.4 hPa Calm   3.2 km/h 91% 0 mm OVC
12:45 16.8 °C 15.3 °C 1014.4 hPa Calm   3.2 km/h 91% 0 mm OVC
12:55 17.4 °C 15.7 °C 1014.4 hPa Calm   1.6 km/h 90% 0 mm OVC
13:00 17.6 °C 15.8 °C 1014.8 hPa Calm   3.2 km/h 89% 0 mm OVC
13:05 17.8 °C 15.9 °C 1014.8 hPa Calm   1.6 km/h 89% 0 mm OVC
13:10 18 °C 16 °C 1014.8 hPa Calm   1.6 km/h 88% 0 mm OVC
13:15 18.4 °C 16.1 °C 1014.8 hPa Calm   3.2 km/h 86% 0 mm OVC
13:20 18.8 °C 16.2 °C 1014.8 hPa WSW 1.6 km/h 3.2 km/h 85% 0 mm BKN
13:25 19.1 °C 16.2 °C 1014.8 hPa Calm   4.8 km/h 83% 0 mm BKN
13:30 19.3 °C 16.4 °C 1014.8 hPa Calm   3.2 km/h 83% 0 mm BKN
13:40 19.6 °C 16 °C 1014.4 hPa Calm   3.2 km/h 80% 0 mm BKN
13:45 19.6 °C 16.2 °C 1014.4 hPa Calm   1.6 km/h 81% 0 mm BKN
13:50 19.7 °C 16.1 °C 1014.4 hPa Calm   3.2 km/h 80% 0 mm BKN
13:55 19.8 °C 15.9 °C 1014.4 hPa Calm   1.6 km/h 78% 0 mm BKN
14:00 20.2 °C 15.8 °C 1014.1 hPa West 1.6 km/h 3.2 km/h 76% 0 mm BKN
14:05 20.4 °C 15.4 °C 1014.4 hPa WNW 1.6 km/h 8 km/h 73% 0 mm BKN
14:10 20.7 °C 16.2 °C 1014.4 hPa Calm   1.6 km/h 75% 0 mm BKN
14:15 20.9 °C 14.3 °C 1014.4 hPa Calm   9.7 km/h 66% 0 mm BKN
14:20 20.8 °C 14.2 °C 1014.4 hPa North 1.6 km/h 4.8 km/h 66% 0 mm BKN
14:25 20.7 °C 12.7 °C 1014.4 hPa ENE 1.6 km/h 8 km/h 60% 0 mm BKN
14:30 20.7 °C 13.4 °C 1014.4 hPa SW 1.6 km/h 8 km/h 63% 0 mm BKN
14:35 20.8 °C 13.5 °C 1014.4 hPa Calm   3.2 km/h 63% 0 mm BKN
14:40 20.7 °C 13.1 °C 1014.4 hPa Calm   4.8 km/h 62% 0 mm BKN
14:45 20.8 °C 13.5 °C 1014.4 hPa Calm   8 km/h 63% 0 mm BKN
14:50 20.8 °C 13.9 °C 1014.1 hPa Calm   4.8 km/h 65% 0 mm BKN
14:55 20.9 °C 13.6 °C 1014.1 hPa Calm   3.2 km/h 63% 0 mm BKN
15:00 21.1 °C 14.7 °C 1014.1 hPa West 1.6 km/h 8 km/h 67% 0 mm BKN
15:05 20.9 °C 12.6 °C 1014.1 hPa WNW 1.6 km/h 8 km/h 59% 0 mm BKN
15:10 20.8 °C 13.7 °C 1014.1 hPa Calm   3.2 km/h 64% 0 mm BKN
15:15 20.8 °C 13.8 °C 1014.1 hPa WNW 1.6 km/h 4.8 km/h 64% 0 mm BKN
15:20 21 °C 13.4 °C 1014.1 hPa Calm   8 km/h 62% 0 mm FEW
15:25 21.1 °C 13.1 °C 1014.1 hPa Calm   3.2 km/h 60% 0 mm FEW
15:30 21.2 °C 13.6 °C 1014.1 hPa Calm   3.2 km/h 62% 0 mm FEW
15:35 21.3 °C 13.2 °C 1014.1 hPa ENE 1.6 km/h 4.8 km/h 60% 0 mm FEW
15:40 21.3 °C 12.9 °C 1013.8 hPa SSE 1.6 km/h 3.2 km/h 59% 0 mm FEW
15:45 21.3 °C 13.2 °C 1013.8 hPa SSW 1.6 km/h 4.8 km/h 60% 0 mm FEW
15:50 21.3 °C 12.7 °C 1013.8 hPa SW 1.6 km/h 8 km/h 58% 0 mm FEW
15:55 21.3 °C 12.7 °C 1013.8 hPa SSW 1.6 km/h 4.8 km/h 58% 0 mm FEW
16:00 21.3 °C 12.5 °C 1013.8 hPa Calm   4.8 km/h 57% 0 mm FEW
16:10 21.4 °C 12.5 °C 1013.8 hPa Calm   3.2 km/h 57% 0 mm FEW
16:15 21.2 °C 12.4 °C 1013.8 hPa Calm   4.8 km/h 57% 0 mm FEW
16:20 21.1 °C 12.3 °C 1014.1 hPa Calm   4.8 km/h 57% 0 mm FEW
16:25 21.2 °C 13.1 °C 1013.8 hPa Calm   1.6 km/h 60% 0 mm FEW
16:30 21.3 °C 12.1 °C 1013.8 hPa Calm   3.2 km/h 56% 0 mm FEW
16:40 21.6 °C 13 °C 1014.1 hPa West 1.6 km/h 8 km/h 58% 0 mm FEW
16:45 21.6 °C 12.4 °C 1013.8 hPa Calm   3.2 km/h 56% 0 mm FEW
16:50 21.5 °C 12.9 °C 1014.1 hPa Calm   8 km/h 58% 0 mm FEW
16:55 21.3 °C 12.7 °C 1014.1 hPa Calm   4.8 km/h 58% 0 mm FEW
17:00 21 °C 12.2 °C 1014.1 hPa Calm   1.6 km/h 57% 0 mm FEW
17:05 20.9 °C 12.8 °C 1013.8 hPa Calm   1.6 km/h 60% 0 mm FEW
17:10 20.9 °C 12.6 °C 1013.8 hPa Calm   3.2 km/h 59% 0 mm FEW
17:15 20.9 °C 12.1 °C 1013.8 hPa West 1.6 km/h 3.2 km/h 57% 0 mm FEW
17:20 20.8 °C 12.5 °C 1014.1 hPa Calm   3.2 km/h 59% 0 mm FEW
17:25 20.7 °C 12.7 °C 1014.1 hPa Calm   3.2 km/h 60% 0 mm FEW
17:30 20.7 °C 11.9 °C 1014.1 hPa Calm   4.8 km/h 57% 0 mm FEW
17:35 20.7 °C 12.2 °C 1014.1 hPa Calm   1.6 km/h 58% 0 mm FEW
17:40 20.6 °C 12.8 °C 1014.1 hPa Calm     61% 0 mm FEW
17:45 20.3 °C 12.6 °C 1014.1 hPa Calm     61% 0 mm FEW
17:50 20.2 °C 12.2 °C 1014.1 hPa Calm   1.6 km/h 60% 0 mm FEW
17:55 20.1 °C 12.4 °C 1014.1 hPa Calm   1.6 km/h 61% 0 mm FEW
18:00 20.2 °C 12.7 °C 1014.4 hPa Calm   1.6 km/h 62% 0 mm FEW
18:05 20.2 °C 12.2 °C 1014.4 hPa Calm   3.2 km/h 60% 0 mm FEW
18:10 20.2 °C 11.4 °C 1014.4 hPa Calm   4.8 km/h 57% 0 mm FEW
18:15 20.3 °C 10.4 °C 1014.4 hPa Calm   3.2 km/h 53% 0 mm FEW
18:20 20.3 °C 11.2 °C 1014.4 hPa Calm   1.6 km/h 56% 0 mm FEW
18:25 20.2 °C 9.1 °C 1014.4 hPa Calm   8 km/h 49% 0 mm FEW
18:30 20.2 °C 10.1 °C 1014.8 hPa Calm   8 km/h 52% 0 mm FEW
18:35 20 °C 10.1 °C 1014.4 hPa Calm   1.6 km/h 53% 0 mm FEW
18:40 19.8 °C 9.9 °C 1014.8 hPa Calm   1.6 km/h 53% 0 mm FEW
18:45 19.7 °C 9.6 °C 1014.8 hPa Calm   1.6 km/h 52% 0 mm FEW
18:50 19.7 °C 10.1 °C 1014.8 hPa Calm     54% 0 mm FEW
18:55 19.5 °C 10.2 °C 1014.8 hPa Calm   1.6 km/h 55% 0 mm FEW
19:00 19.5 °C 10.2 °C 1014.8 hPa Calm   1.6 km/h 55% 0 mm FEW
19:10 19.2 °C 11.2 °C 1014.8 hPa Calm   1.6 km/h 60% 0 mm FEW
19:15 19 °C 11.3 °C 1014.8 hPa Calm     61% 0 mm FEW
19:20 18.8 °C 11.8 °C 1014.8 hPa Calm     64% 0 mm FEW
19:30 18.3 °C 11.9 °C 1015.1 hPa Calm     66% 0 mm FEW
19:40 18 °C 12 °C 1015.1 hPa Calm     68% 0 mm FEW
19:45 17.9 °C 11.9 °C 1015.1 hPa Calm     68% 0 mm FEW
19:50 17.7 °C 11.9 °C 1015.1 hPa Calm     69% 0 mm FEW
19:55 17.6 °C 12.3 °C 1015.5 hPa Calm     71% 0 mm FEW
20:00 17.5 °C 11.9 °C 1015.5 hPa Calm     70% 0 mm FEW
20:10 17.3 °C 11.8 °C 1015.5 hPa Calm     70% 0 mm FEW
20:15 17.2 °C 11.7 °C 1015.5 hPa Calm     70% 0 mm FEW
20:20 17.1 °C 12 °C 1015.8 hPa Calm     72% 0 mm FEW
20:25 16.9 °C 12.1 °C 1015.8 hPa Calm     73% 0 mm FEW
20:30 16.8 °C 12.2 °C 1015.8 hPa Calm     74% 0 mm FEW
20:35 16.7 °C 12 °C 1015.8 hPa Calm     74% 0 mm FEW
20:40 16.5 °C 12.1 °C 1016.1 hPa Calm     75% 0 mm FEW
20:45 16.4 °C 12.1 °C 1016.1 hPa Calm     76% 0 mm FEW
20:50 16.2 °C 12 °C 1016.1 hPa Calm     76% 0 mm FEW
20:55 16.1 °C 12.1 °C 1016.1 hPa Calm     77% 0 mm FEW
Piedmont Bend
Compliments of Weather Underground - 4 mb